createdAt,value
2018-05-23T00:01:08.520Z,991.33
2018-05-23T00:02:18.534Z,991.32
2018-05-23T00:03:28.277Z,991.33
2018-05-23T00:04:38.025Z,991.35
2018-05-23T00:05:48.030Z,991.39
2018-05-23T00:06:58.040Z,991.36
2018-05-23T00:08:08.059Z,991.42
2018-05-23T00:09:18.071Z,991.44
2018-05-23T00:10:27.811Z,991.46
2018-05-23T00:11:37.300Z,991.45
2018-05-23T00:12:47.049Z,991.47
2018-05-23T00:13:57.062Z,991.47
2018-05-23T00:15:06.811Z,991.5
2018-05-23T00:16:16.302Z,991.51
2018-05-23T00:17:26.332Z,991.48
2018-05-23T00:18:36.347Z,991.48
2018-05-23T00:19:46.401Z,991.56
2018-05-23T00:20:56.421Z,991.57
2018-05-23T00:22:06.442Z,991.58
2018-05-23T00:23:16.452Z,991.58
2018-05-23T00:24:25.930Z,991.59
2018-05-23T00:25:35.955Z,991.6
2018-05-23T00:26:45.972Z,991.63
2018-05-23T00:27:55.728Z,991.66
2018-05-23T00:29:05.474Z,991.65
2018-05-23T00:30:15.495Z,991.63
2018-05-23T00:31:24.975Z,991.66
2018-05-23T00:32:34.721Z,991.67
2018-05-23T00:33:44.736Z,991.68
2018-05-23T00:34:54.753Z,991.72
2018-05-23T00:36:04.501Z,991.65
2018-05-23T00:37:13.722Z,991.73
2018-05-23T00:38:23.738Z,991.76
2018-05-23T00:39:33.817Z,991.76
2018-05-23T00:40:43.836Z,991.79
2018-05-23T00:41:53.320Z,991.85
2018-05-23T00:43:03.333Z,991.89
2018-05-23T00:44:13.080Z,991.9
2018-05-23T00:45:22.826Z,991.91
2018-05-23T00:46:32.573Z,991.92
2018-05-23T00:47:41.783Z,991.95
2018-05-23T00:48:51.795Z,991.97
2018-05-23T00:50:01.550Z,992
2018-05-23T00:51:11.353Z,992.01
2018-05-23T00:52:21.102Z,992.03
2018-05-23T00:53:30.592Z,992.05
2018-05-23T00:54:40.336Z,992.04
2018-05-23T00:55:50.081Z,992.04
2018-05-23T00:57:00.091Z,992.05
2018-05-23T00:58:09.835Z,992.07
2018-05-23T00:59:19.847Z,992.06
2018-05-23T01:00:29.323Z,992.09
2018-05-23T01:01:39.338Z,992.07
2018-05-23T01:02:49.078Z,992.1
2018-05-23T01:03:59.094Z,992.14
2018-05-23T01:05:08.583Z,992.16
2018-05-23T01:06:18.599Z,992.14
2018-05-23T01:07:28.357Z,992.16
2018-05-23T01:08:38.369Z,992.14
2018-05-23T01:09:48.382Z,992.16
2018-05-23T01:10:58.396Z,992.15
2018-05-23T01:12:07.613Z,992.12
2018-05-23T01:13:17.704Z,992.14
2018-05-23T01:14:27.723Z,992.15
2018-05-23T01:15:37.752Z,992.17
2018-05-23T01:16:47.507Z,992.17
2018-05-23T01:17:57.248Z,992.18
2018-05-23T01:19:06.459Z,992.19
2018-05-23T01:20:16.211Z,992.19
2018-05-23T01:21:26.219Z,992.18
2018-05-23T01:22:35.434Z,992.22
2018-05-23T01:23:45.459Z,992.2
2018-05-23T01:24:55.546Z,992.22
2018-05-23T01:26:05.029Z,992.27
2018-05-23T01:27:14.770Z,992.28
2018-05-23T01:28:24.785Z,992.3
2018-05-23T01:29:34.802Z,992.35
2018-05-23T01:30:44.819Z,992.29
2018-05-23T01:31:54.580Z,992.31
2018-05-23T01:33:04.328Z,992.34
2018-05-23T01:34:14.342Z,992.33
2018-05-23T01:35:23.870Z,992.28
2018-05-23T01:36:33.347Z,992.27
2018-05-23T01:37:42.823Z,992.31
2018-05-23T01:38:52.858Z,992.32
2018-05-23T01:40:02.869Z,992.34
2018-05-23T01:41:12.347Z,992.41
2018-05-23T01:42:22.359Z,992.44
2018-05-23T01:43:32.366Z,992.43
2018-05-23T01:44:42.382Z,992.47
2018-05-23T01:45:52.141Z,992.46
2018-05-23T01:47:02.154Z,992.45
2018-05-23T01:48:11.637Z,992.43
2018-05-23T01:49:21.651Z,992.51
2018-05-23T01:50:31.664Z,992.49
2018-05-23T01:51:41.402Z,992.51
2018-05-23T01:52:50.343Z,992.5
2018-05-23T01:54:00.354Z,992.54
2018-05-23T01:55:10.102Z,992.6
2018-05-23T01:56:20.124Z,992.6
2018-05-23T01:57:30.152Z,992.59
2018-05-23T01:58:40.174Z,992.61
2018-05-23T01:59:49.922Z,992.64
2018-05-23T02:00:59.420Z,992.63
2018-05-23T02:02:09.440Z,992.63
2018-05-23T02:03:19.185Z,992.64
2018-05-23T02:04:29.025Z,992.61
2018-05-23T02:05:38.502Z,992.65
2018-05-23T02:06:48.510Z,992.62
2018-05-23T02:07:58.257Z,992.64
2018-05-23T02:09:08.275Z,992.64
2018-05-23T02:10:18.334Z,992.69
2018-05-23T02:11:28.354Z,992.7
2018-05-23T02:12:37.568Z,992.72
2018-05-23T02:13:47.587Z,992.74
2018-05-23T02:14:57.669Z,992.73
2018-05-23T02:16:07.675Z,992.77
2018-05-23T02:17:17.689Z,992.74
2018-05-23T02:18:27.696Z,992.74
2018-05-23T02:19:37.721Z,992.75
2018-05-23T02:20:47.739Z,992.77
2018-05-23T02:21:57.057Z,992.79
2018-05-23T02:23:06.533Z,992.77
2018-05-23T02:24:16.550Z,992.75
2018-05-23T02:25:26.288Z,992.81
2018-05-23T02:26:36.085Z,992.8
2018-05-23T02:27:45.581Z,992.78
2018-05-23T02:28:55.594Z,992.82
2018-05-23T02:30:05.596Z,992.82
2018-05-23T02:31:15.081Z,992.84
2018-05-23T02:32:24.826Z,992.81
2018-05-23T02:33:34.035Z,992.82
2018-05-23T02:34:44.052Z,992.84
2018-05-23T02:35:54.076Z,992.85
2018-05-23T02:37:03.285Z,992.89
2018-05-23T02:38:13.033Z,992.88
2018-05-23T02:39:22.804Z,992.92
2018-05-23T02:40:32.555Z,992.92
2018-05-23T02:41:42.692Z,992.92
2018-05-23T02:42:52.449Z,992.94
2018-05-23T02:44:02.207Z,992.98
2018-05-23T02:45:12.577Z,992.97
2018-05-23T02:46:22.325Z,993.03
2018-05-23T02:47:32.080Z,993.02
2018-05-23T02:48:41.833Z,993.02
2018-05-23T02:49:51.840Z,993
2018-05-23T02:51:01.589Z,993.01
2018-05-23T02:52:11.132Z,993.04
2018-05-23T02:53:20.342Z,993.04
2018-05-23T02:54:30.097Z,993.01
2018-05-23T02:55:40.119Z,993.06
2018-05-23T02:56:49.899Z,993.06
2018-05-23T02:57:59.651Z,993.05
2018-05-23T02:59:09.422Z,993.04
2018-05-23T03:04:38.548Z,993.17
2018-05-23T03:05:48.563Z,993.15
2018-05-23T03:06:58.571Z,993.16
2018-05-23T03:08:08.060Z,993.16
2018-05-23T03:09:18.089Z,993.19
2018-05-23T03:10:28.162Z,993.19
2018-05-23T03:11:38.173Z,993.2
2018-05-23T03:12:47.933Z,993.21
2018-05-23T03:13:57.950Z,993.21
2018-05-23T03:15:07.977Z,993.24
2018-05-23T03:16:17.986Z,993.23
2018-05-23T03:17:27.995Z,993.26
2018-05-23T03:18:37.740Z,993.29
2018-05-23T03:19:47.488Z,993.3
2018-05-23T03:20:57.515Z,993.27
2018-05-23T03:22:07.633Z,993.29
2018-05-23T03:23:17.602Z,993.32
2018-05-23T03:24:27.423Z,993.31
2018-05-23T03:25:37.438Z,993.31
2018-05-23T03:26:47.231Z,993.35
2018-05-23T03:27:56.725Z,993.37
2018-05-23T03:29:06.474Z,993.38
2018-05-23T03:30:16.489Z,993.42
2018-05-23T03:31:26.504Z,993.42
2018-05-23T03:32:36.266Z,993.4
2018-05-23T03:33:46.273Z,993.44
2018-05-23T03:34:56.287Z,993.48
2018-05-23T03:36:06.039Z,993.47
2018-05-23T03:37:15.784Z,993.47
2018-05-23T03:38:25.541Z,993.51
2018-05-23T03:39:35.283Z,993.5
2018-05-23T03:40:45.343Z,993.52
2018-05-23T03:41:55.372Z,993.54
2018-05-23T03:43:05.138Z,993.52
2018-05-23T03:44:14.888Z,993.58
2018-05-23T03:45:24.635Z,993.54
2018-05-23T03:46:34.108Z,993.56
2018-05-23T03:47:44.122Z,993.61
2018-05-23T03:48:54.137Z,993.58
2018-05-23T03:50:04.151Z,993.61
2018-05-23T03:51:13.364Z,993.57
2018-05-23T03:52:23.109Z,993.57
2018-05-23T03:53:33.195Z,993.61
2018-05-23T03:54:42.939Z,993.6
2018-05-23T03:55:52.949Z,993.65
2018-05-23T03:57:02.963Z,993.65
2018-05-23T03:58:12.986Z,993.65
2018-05-23T03:59:23.003Z,993.67
2018-05-23T04:00:33.018Z,993.65
2018-05-23T04:01:42.771Z,993.64
2018-05-23T04:02:52.801Z,993.64
2018-05-23T04:04:02.014Z,993.68
2018-05-23T04:05:11.760Z,993.69
2018-05-23T04:06:21.510Z,993.72
2018-05-23T04:07:31.577Z,993.7
2018-05-23T04:08:41.328Z,993.7
2018-05-23T04:09:51.081Z,993.71
2018-05-23T04:11:01.092Z,993.71
2018-05-23T04:12:10.305Z,993.73
2018-05-23T04:13:19.782Z,993.75
2018-05-23T04:14:29.794Z,993.75
2018-05-23T04:15:39.545Z,993.71
2018-05-23T04:16:49.562Z,993.75
2018-05-23T04:17:59.579Z,993.76
2018-05-23T04:19:09.606Z,993.76
2018-05-23T04:20:19.619Z,993.77
2018-05-23T04:21:29.093Z,993.83
2018-05-23T04:22:38.833Z,993.77
2018-05-23T04:23:48.849Z,993.77
2018-05-23T04:24:59.030Z,993.81
2018-05-23T04:26:09.227Z,993.82
2018-05-23T04:27:19.251Z,993.84
2018-05-23T04:28:29.006Z,993.84
2018-05-23T04:29:39.017Z,993.83
2018-05-23T04:30:48.761Z,993.84
2018-05-23T04:31:58.791Z,993.9
2018-05-23T04:33:08.800Z,993.86
2018-05-23T04:34:18.823Z,993.89
2018-05-23T04:35:28.304Z,993.9
2018-05-23T04:36:38.055Z,993.94
2018-05-23T04:37:47.798Z,993.94
2018-05-23T04:38:57.814Z,993.9
2018-05-23T04:40:07.561Z,993.87
2018-05-23T04:41:17.571Z,993.9
2018-05-23T04:42:27.583Z,993.88
2018-05-23T04:43:37.605Z,993.88
2018-05-23T04:44:47.085Z,993.94
2018-05-23T04:45:57.103Z,993.93
2018-05-23T04:47:06.865Z,993.96
2018-05-23T04:48:16.880Z,993.97
2018-05-23T04:49:26.621Z,994
2018-05-23T04:50:36.098Z,993.97
2018-05-23T04:51:45.573Z,993.99
2018-05-23T04:52:55.319Z,993.99
2018-05-23T04:54:05.068Z,994.03
2018-05-23T04:55:15.079Z,994.09
2018-05-23T04:56:24.833Z,994.08
2018-05-23T04:57:34.579Z,994.08
2018-05-23T04:58:44.596Z,994.08
2018-05-23T04:59:54.344Z,994.09
2018-05-23T05:01:03.298Z,994.07
2018-05-23T05:02:13.058Z,994.08
2018-05-23T05:03:22.272Z,994.08
2018-05-23T05:04:32.019Z,994.12
2018-05-23T05:05:41.762Z,994.13
2018-05-23T05:06:51.781Z,994.09
2018-05-23T05:08:00.982Z,994.1
2018-05-23T05:09:10.727Z,994.13
2018-05-23T05:10:20.471Z,994.09
2018-05-23T05:11:30.504Z,994.1
2018-05-23T05:12:40.520Z,994.12
2018-05-23T05:13:50.270Z,994.16
2018-05-23T05:15:00.477Z,994.15
2018-05-23T05:16:10.498Z,994.16
2018-05-23T05:17:20.616Z,994.16
2018-05-23T05:18:30.356Z,994.2
2018-05-23T05:19:40.379Z,994.19
2018-05-23T05:20:49.587Z,994.21
2018-05-23T05:21:59.335Z,994.18
2018-05-23T05:23:08.546Z,994.17
2018-05-23T05:24:18.557Z,994.2
2018-05-23T05:25:28.571Z,994.22
2018-05-23T05:26:38.313Z,994.26
2018-05-23T05:27:48.324Z,994.24
2018-05-23T05:28:57.808Z,994.26
2018-05-23T05:30:07.560Z,994.26
2018-05-23T05:31:16.513Z,994.27
2018-05-23T05:32:25.728Z,994.27
2018-05-23T05:33:34.939Z,994.28
2018-05-23T05:34:44.997Z,994.23
2018-05-23T05:35:55.028Z,994.27
2018-05-23T05:37:04.777Z,994.26
2018-05-23T05:38:14.254Z,994.24
2018-05-23T05:39:24.270Z,994.27
2018-05-23T05:40:33.752Z,994.24
2018-05-23T05:41:43.981Z,994.24
2018-05-23T05:42:54.057Z,994.26
2018-05-23T05:44:04.080Z,994.27
2018-05-23T05:45:14.090Z,994.28
2018-05-23T05:46:24.103Z,994.32
2018-05-23T05:47:33.844Z,994.31
2018-05-23T05:48:43.414Z,994.3
2018-05-23T05:49:52.621Z,994.32
2018-05-23T05:51:02.380Z,994.3
2018-05-23T05:52:11.962Z,994.27
2018-05-23T05:53:21.995Z,994.31
2018-05-23T05:54:32.018Z,994.3
2018-05-23T05:55:41.767Z,994.34
2018-05-23T05:56:50.993Z,994.32
2018-05-23T05:58:00.742Z,994.32
2018-05-23T05:59:10.494Z,994.3
2018-05-23T06:00:19.702Z,994.29
2018-05-23T06:01:29.712Z,994.32
2018-05-23T06:02:38.933Z,994.31
2018-05-23T06:03:48.944Z,994.33
2018-05-23T06:04:58.423Z,994.36
2018-05-23T06:06:08.452Z,994.3
2018-05-23T06:07:18.197Z,994.35
2018-05-23T06:08:27.420Z,994.35
2018-05-23T06:09:37.269Z,994.38
2018-05-23T06:10:47.659Z,994.43
2018-05-23T06:11:57.674Z,994.43
2018-05-23T06:13:07.718Z,994.44
2018-05-23T06:14:17.771Z,994.49
2018-05-23T06:15:27.516Z,994.47
2018-05-23T06:16:37.263Z,994.5
2018-05-23T06:17:46.745Z,994.55
2018-05-23T06:18:56.501Z,994.5
2018-05-23T06:20:06.519Z,994.51
2018-05-23T06:21:16.283Z,994.5
2018-05-23T06:22:26.077Z,994.47
2018-05-23T06:23:35.917Z,994.52
2018-05-23T06:24:45.939Z,994.51
2018-05-23T06:25:55.694Z,994.52
2018-05-23T06:27:05.171Z,994.58
2018-05-23T06:28:14.920Z,994.6
2018-05-23T06:29:24.677Z,994.57
2018-05-23T06:30:34.162Z,994.56
2018-05-23T06:31:43.912Z,994.59
2018-05-23T06:32:53.656Z,994.57
2018-05-23T06:34:03.132Z,994.61
2018-05-23T06:35:12.610Z,994.6
2018-05-23T06:36:22.098Z,994.67
2018-05-23T06:37:31.310Z,994.68
2018-05-23T06:38:41.331Z,994.67
2018-05-23T06:39:51.345Z,994.69
2018-05-23T06:41:01.370Z,994.69
2018-05-23T06:42:10.579Z,994.69
2018-05-23T06:43:20.324Z,994.69
2018-05-23T06:44:30.207Z,994.71
2018-05-23T06:45:39.986Z,994.74
2018-05-23T06:46:49.814Z,994.73
2018-05-23T06:47:59.557Z,994.75
2018-05-23T06:49:09.319Z,994.72
2018-05-23T06:50:19.081Z,994.71
2018-05-23T06:51:29.094Z,994.77
2018-05-23T06:52:38.581Z,994.75
2018-05-23T06:53:48.677Z,994.76
2018-05-23T06:54:58.769Z,994.75
2018-05-23T06:56:08.369Z,994.82
2018-05-23T06:57:17.873Z,994.8
2018-05-23T06:58:27.351Z,994.73
2018-05-23T06:59:36.829Z,994.79
2018-05-23T07:00:46.577Z,994.77
2018-05-23T07:01:56.599Z,994.79
2018-05-23T07:03:06.617Z,994.77
2018-05-23T07:04:16.634Z,994.73
2018-05-23T07:05:26.113Z,994.79
2018-05-23T07:06:36.130Z,994.82
2018-05-23T07:07:46.142Z,994.75
2018-05-23T07:08:56.205Z,994.79
2018-05-23T07:10:05.955Z,994.82
2018-05-23T07:11:15.985Z,994.8
2018-05-23T07:12:25.744Z,994.79
2018-05-23T07:13:35.804Z,994.83
2018-05-23T07:14:45.554Z,994.84
2018-05-23T07:15:55.589Z,994.88
2018-05-23T07:17:05.080Z,994.89
2018-05-23T07:18:14.670Z,994.9
2018-05-23T07:19:24.566Z,994.9
2018-05-23T07:20:34.584Z,994.94
2018-05-23T07:21:44.600Z,994.88
2018-05-23T07:22:54.625Z,994.92
2018-05-23T07:24:04.528Z,994.92
2018-05-23T07:25:14.393Z,994.93
2018-05-23T07:26:23.874Z,994.91
2018-05-23T07:27:33.616Z,994.97
2018-05-23T07:28:43.359Z,994.96
2018-05-23T07:29:53.107Z,994.98
2018-05-23T07:31:02.347Z,994.96
2018-05-23T07:32:12.100Z,994.98
2018-05-23T07:33:22.120Z,994.99
2018-05-23T07:34:31.605Z,995.01
2018-05-23T07:35:40.551Z,995
2018-05-23T07:36:50.310Z,995.01
2018-05-23T07:38:00.065Z,995.01
2018-05-23T07:39:09.808Z,994.99
2018-05-23T07:40:19.551Z,995
2018-05-23T07:41:29.035Z,994.99
2018-05-23T07:42:38.817Z,995.01
2018-05-23T07:43:48.277Z,995.06
2018-05-23T07:44:58.295Z,995.07
2018-05-23T07:46:08.045Z,995.04
2018-05-23T07:47:18.056Z,995.05
2018-05-23T07:48:27.849Z,995.08
2018-05-23T07:49:37.868Z,995.06
2018-05-23T07:50:47.962Z,995.05
2018-05-23T07:51:57.861Z,995.07
2018-05-23T07:53:06.539Z,995.06
2018-05-23T07:54:15.482Z,995.05
2018-05-23T07:55:24.964Z,995.03
2018-05-23T07:56:34.536Z,995.06
2018-05-23T07:57:44.828Z,995.07
2018-05-23T07:58:54.843Z,995.08
2018-05-23T08:00:04.325Z,995.08
2018-05-23T08:01:14.336Z,995.05
2018-05-23T08:02:24.357Z,995.07
2018-05-23T08:03:34.375Z,995.08
2018-05-23T08:04:44.128Z,995.07
2018-05-23T08:05:54.147Z,995.05
2018-05-23T08:07:03.896Z,995.07
2018-05-23T08:08:13.912Z,995.08
2018-05-23T08:09:23.129Z,995.08
2018-05-23T08:10:32.604Z,995.05
2018-05-23T08:11:42.412Z,995.09
2018-05-23T08:12:52.430Z,995.1
2018-05-23T08:14:01.649Z,995.1
2018-05-23T08:15:11.138Z,995.09
2018-05-23T08:16:20.880Z,995.14
2018-05-23T08:17:30.726Z,995.15
2018-05-23T08:18:40.472Z,995.15
2018-05-23T08:19:50.485Z,995.16
2018-05-23T08:21:00.240Z,995.11
2018-05-23T08:22:10.001Z,995.14
2018-05-23T08:23:19.751Z,995.16
2018-05-23T08:24:29.578Z,995.15
2018-05-23T08:25:39.846Z,995.09
2018-05-23T08:26:49.324Z,995.11
2018-05-23T08:27:59.349Z,995.11
2018-05-23T08:29:09.365Z,995.11
2018-05-23T08:30:19.376Z,995.07
2018-05-23T08:31:29.391Z,995.11
2018-05-23T08:32:39.139Z,995.12
2018-05-23T08:33:49.161Z,995.12
2018-05-23T08:34:59.171Z,995.11
2018-05-23T08:36:08.923Z,995.1
2018-05-23T08:37:19.042Z,995.1
2018-05-23T08:38:28.095Z,995.08
2018-05-23T08:39:37.580Z,995.1
2018-05-23T08:40:47.608Z,995.1
2018-05-23T08:41:57.091Z,995.08
2018-05-23T08:43:06.574Z,995.14
2018-05-23T08:44:16.374Z,995.16
2018-05-23T08:45:25.592Z,995.14
2018-05-23T08:46:35.611Z,995.15
2018-05-23T08:47:45.358Z,995.16
2018-05-23T08:48:55.106Z,995.15
2018-05-23T08:50:04.604Z,995.19
2018-05-23T08:51:13.818Z,995.14
2018-05-23T08:52:23.564Z,995.17
2018-05-23T08:53:33.042Z,995.18
2018-05-23T08:54:42.253Z,995.17
2018-05-23T08:55:52.012Z,995.15
2018-05-23T08:57:02.028Z,995.19
2018-05-23T08:58:11.239Z,995.13
2018-05-23T08:59:20.992Z,995.14
2018-05-23T09:00:30.738Z,995.16
2018-05-23T09:01:40.766Z,995.13
2018-05-23T09:02:50.785Z,995.1
2018-05-23T09:04:00.531Z,995.08
2018-05-23T09:05:10.557Z,995.08
2018-05-23T09:06:20.576Z,995.08
2018-05-23T09:07:30.331Z,995.07
2018-05-23T09:08:40.352Z,995.08
2018-05-23T09:09:50.109Z,995.1
2018-05-23T09:10:59.598Z,995.11
2018-05-23T09:12:08.913Z,995.13
2018-05-23T09:13:19.624Z,995.11
2018-05-23T09:14:28.835Z,995.14
2018-05-23T09:15:38.580Z,995.16
2018-05-23T09:16:48.602Z,995.13
2018-05-23T09:17:58.361Z,995.12
2018-05-23T09:19:08.112Z,995.15
2018-05-23T09:20:18.131Z,995.12
2018-05-23T09:21:27.887Z,995.12
2018-05-23T09:22:37.096Z,995.16
2018-05-23T09:23:47.199Z,995.11
2018-05-23T09:24:57.228Z,995.14
2018-05-23T09:26:06.714Z,995.14
2018-05-23T09:27:16.299Z,995.1
2018-05-23T09:28:26.048Z,995.07
2018-05-23T09:29:35.894Z,995.06
2018-05-23T09:30:45.373Z,995.07
2018-05-23T09:31:55.127Z,995.07
2018-05-23T09:33:04.711Z,995.05
2018-05-23T09:34:14.208Z,995.03
2018-05-23T09:35:23.960Z,995
2018-05-23T09:36:33.975Z,994.98
2018-05-23T09:37:43.738Z,994.95
2018-05-23T09:38:53.223Z,994.98
2018-05-23T09:40:03.032Z,995.01
2018-05-23T09:41:12.519Z,994.95
2018-05-23T09:42:22.541Z,994.94
2018-05-23T09:43:32.559Z,994.99
2018-05-23T09:44:42.306Z,994.97
2018-05-23T09:45:52.052Z,994.93
2018-05-23T09:47:01.811Z,994.97
2018-05-23T09:48:11.841Z,995.01
2018-05-23T09:49:21.946Z,994.97
2018-05-23T09:50:30.895Z,994.98
2018-05-23T09:51:40.651Z,994.99
2018-05-23T09:52:50.677Z,994.97
2018-05-23T09:54:00.423Z,995
2018-05-23T09:55:10.523Z,994.96
2018-05-23T09:56:20.652Z,995.01
2018-05-23T09:57:30.667Z,995.03
2018-05-23T09:58:40.731Z,994.98
2018-05-23T09:59:50.491Z,994.98
2018-05-23T10:00:59.985Z,994.97
2018-05-23T10:02:09.526Z,994.98
2018-05-23T10:03:19.540Z,994.97
2018-05-23T10:04:29.023Z,995.01
2018-05-23T10:05:38.789Z,994.99
2018-05-23T10:06:48.827Z,995.02
2018-05-23T10:07:58.574Z,994.99
2018-05-23T10:09:07.790Z,995.03
2018-05-23T10:10:17.804Z,995.04
2018-05-23T10:11:27.830Z,994.98
2018-05-23T10:12:37.851Z,994.99
2018-05-23T10:13:47.604Z,995
2018-05-23T10:14:57.625Z,994.98
2018-05-23T10:16:07.107Z,994.99
2018-05-23T10:17:16.852Z,995
2018-05-23T10:18:26.337Z,994.99
2018-05-23T10:19:36.360Z,995.01
2018-05-23T10:20:46.109Z,995.02
2018-05-23T10:21:55.857Z,995.04
2018-05-23T10:23:05.705Z,995.04
2018-05-23T10:24:15.457Z,995.03
2018-05-23T10:25:25.223Z,995.02
2018-05-23T10:26:35.246Z,995.03
2018-05-23T10:27:45.008Z,995
2018-05-23T10:28:54.755Z,995.04
2018-05-23T10:30:04.516Z,995.03
2018-05-23T10:31:14.019Z,995.03
2018-05-23T10:32:24.033Z,994.99
2018-05-23T10:33:33.781Z,995.03
2018-05-23T10:34:43.531Z,995.03
2018-05-23T10:35:53.279Z,995.07
2018-05-23T10:37:02.846Z,995.04
2018-05-23T10:38:12.318Z,995.04
2018-05-23T10:39:21.814Z,995.04
2018-05-23T10:40:31.571Z,995.03
2018-05-23T10:41:41.320Z,995.02
2018-05-23T10:42:51.079Z,995.03
2018-05-23T10:44:01.111Z,995
2018-05-23T10:45:10.876Z,995.07
2018-05-23T10:46:20.645Z,995.04
2018-05-23T10:47:30.758Z,995.01
2018-05-23T10:48:40.343Z,995
2018-05-23T10:49:50.372Z,994.99
2018-05-23T10:51:00.467Z,994.95
2018-05-23T10:52:10.241Z,994.99
2018-05-23T10:53:19.988Z,994.96
2018-05-23T10:54:29.207Z,995.01
2018-05-23T10:55:38.964Z,995
2018-05-23T10:56:48.717Z,995.02
2018-05-23T10:57:58.213Z,994.99
2018-05-23T10:59:07.983Z,994.97
2018-05-23T11:00:18.013Z,994.96
2018-05-23T11:01:28.049Z,994.96
2018-05-23T11:02:37.528Z,994.98
2018-05-23T11:03:47.319Z,995.01
2018-05-23T11:04:57.342Z,995.02
2018-05-23T11:06:07.116Z,994.99
2018-05-23T11:07:16.876Z,995
2018-05-23T11:08:26.379Z,995.03
2018-05-23T11:09:36.400Z,995.06
2018-05-23T11:10:46.425Z,995.03
2018-05-23T11:11:56.451Z,995.07
2018-05-23T11:13:06.207Z,995.05
2018-05-23T11:14:16.233Z,995.02
2018-05-23T11:15:25.985Z,995.05
2018-05-23T11:16:36.002Z,995.06
2018-05-23T11:17:45.752Z,995.06
2018-05-23T11:18:55.766Z,995.07
2018-05-23T11:20:05.520Z,995.1
2018-05-23T11:21:15.283Z,995.08
2018-05-23T11:22:25.039Z,995.07
2018-05-23T11:23:34.521Z,995.04
2018-05-23T11:24:44.282Z,995.09
2018-05-23T11:25:54.306Z,995.07
2018-05-23T11:27:04.063Z,995.06
2018-05-23T11:28:13.275Z,995.09
2018-05-23T11:29:22.754Z,995.11
2018-05-23T11:30:32.250Z,995.14
2018-05-23T11:31:42.005Z,995.14
2018-05-23T11:32:51.763Z,995.21
2018-05-23T11:34:01.512Z,995.25
2018-05-23T11:35:11.052Z,995.21
2018-05-23T11:36:21.074Z,995.19
2018-05-23T11:37:31.128Z,995.15
2018-05-23T11:38:41.152Z,995.2
2018-05-23T11:39:50.916Z,995.12
2018-05-23T11:41:00.409Z,995.13
2018-05-23T11:42:09.640Z,995.11
2018-05-23T11:43:19.665Z,995.05
2018-05-23T11:44:29.695Z,995.08
2018-05-23T11:45:39.449Z,995.07
2018-05-23T11:46:48.672Z,995.11
2018-05-23T11:47:58.707Z,995.13
2018-05-23T11:49:08.463Z,995.07
2018-05-23T11:50:18.226Z,995.07
2018-05-23T11:51:28.253Z,995.07
2018-05-23T11:52:37.741Z,995.06
2018-05-23T11:53:47.581Z,995.11
2018-05-23T11:54:57.341Z,995.14
2018-05-23T11:56:07.114Z,995.06
2018-05-23T11:57:17.147Z,995.12
2018-05-23T11:58:27.181Z,995.22
2018-05-23T11:59:36.676Z,995.16
2018-05-23T12:00:46.439Z,995.08
2018-05-23T12:01:56.547Z,995.1
2018-05-23T12:03:05.978Z,995.2
2018-05-23T12:04:16.010Z,995.1
2018-05-23T12:05:25.849Z,995.16
2018-05-23T12:06:35.886Z,995.11
2018-05-23T12:07:45.919Z,995.14
2018-05-23T12:08:55.951Z,995.16
2018-05-23T12:10:05.492Z,995.17
2018-05-23T12:11:15.562Z,995.15
2018-05-23T12:12:25.328Z,995.13
2018-05-23T12:13:34.564Z,995.04
2018-05-23T12:14:44.329Z,995.04
2018-05-23T12:15:54.193Z,995.01
2018-05-23T12:17:03.957Z,995
2018-05-23T12:18:13.195Z,994.99
2018-05-23T12:19:22.968Z,994.98
2018-05-23T12:20:32.848Z,995.02
2018-05-23T12:21:42.885Z,995
2018-05-23T12:22:52.922Z,995.03
2018-05-23T12:24:02.429Z,995.04
2018-05-23T12:25:12.463Z,995.08
2018-05-23T12:26:21.963Z,995.03
2018-05-23T12:27:31.733Z,995.06
2018-05-23T12:28:41.504Z,995.12
2018-05-23T12:29:51.542Z,994.96
2018-05-23T12:31:01.044Z,995.08
2018-05-23T12:32:10.282Z,994.96
2018-05-23T12:33:20.347Z,994.95
2018-05-23T12:34:30.207Z,995.02
2018-05-23T12:35:40.514Z,994.96
2018-05-23T12:36:50.521Z,994.93
2018-05-23T12:38:00.306Z,994.95
2018-05-23T12:39:10.128Z,994.97
2018-05-23T12:40:19.625Z,994.93
2018-05-23T12:41:29.390Z,995.03
2018-05-23T12:42:39.426Z,995.02
2018-05-23T12:43:49.204Z,994.95
2018-05-23T12:44:59.237Z,994.98
2018-05-23T12:46:09.026Z,994.99
2018-05-23T12:47:19.080Z,994.93
2018-05-23T12:48:28.844Z,994.92
2018-05-23T12:49:38.900Z,994.9
2018-05-23T12:50:48.950Z,994.93
2018-05-23T12:51:58.723Z,995
2018-05-23T12:53:08.498Z,994.95
2018-05-23T12:54:18.529Z,995.02
2018-05-23T12:55:28.351Z,995.01
2018-05-23T12:56:38.123Z,995.04
2018-05-23T12:57:47.899Z,994.97
2018-05-23T12:58:57.951Z,994.99
2018-05-23T13:00:07.453Z,994.97
2018-05-23T13:01:16.954Z,995.08
2018-05-23T13:02:26.452Z,995.02
2018-05-23T13:03:36.484Z,995.06
2018-05-23T13:04:46.261Z,995.05
2018-05-23T13:05:56.293Z,995.04
2018-05-23T13:07:05.532Z,995.07
2018-05-23T13:08:15.407Z,995.12
2018-05-23T13:09:25.173Z,995.23
2018-05-23T13:10:34.696Z,995.24
2018-05-23T13:11:44.205Z,995.25
2018-05-23T13:12:53.982Z,995.29
2018-05-23T13:14:03.756Z,995.33
2018-05-23T13:15:13.795Z,995.32
2018-05-23T13:16:23.563Z,995.35
2018-05-23T13:17:33.595Z,995.38
2018-05-23T13:18:43.369Z,995.33
2018-05-23T13:19:53.144Z,995.35
2018-05-23T13:21:03.194Z,995.31
2018-05-23T13:22:12.698Z,995.32
2018-05-23T13:23:22.730Z,995.35
2018-05-23T13:24:31.695Z,995.33
2018-05-23T13:25:41.028Z,995.29
2018-05-23T13:26:51.255Z,995.29
2018-05-23T13:28:01.290Z,995.3
2018-05-23T13:29:10.789Z,995.34
2018-05-23T13:30:20.558Z,995.27
2018-05-23T13:31:30.601Z,995.3
2018-05-23T13:32:40.115Z,995.3
2018-05-23T13:33:49.630Z,995.28
2018-05-23T13:34:59.669Z,995.33
2018-05-23T13:36:09.180Z,995.34
2018-05-23T13:37:19.212Z,995.34
2018-05-23T13:38:29.250Z,995.28
2018-05-23T13:39:39.014Z,995.38
2018-05-23T13:40:48.782Z,995.37
2018-05-23T13:41:58.823Z,995.4
2018-05-23T13:43:08.057Z,995.43
2018-05-23T13:44:18.106Z,995.4
2018-05-23T13:45:27.603Z,995.38
2018-05-23T13:46:37.652Z,995.39
2018-05-23T13:47:47.157Z,995.36
2018-05-23T13:48:57.268Z,995.35
2018-05-23T13:50:06.772Z,995.35
2018-05-23T13:51:16.628Z,995.36
2018-05-23T13:52:26.126Z,995.32
2018-05-23T13:53:35.903Z,995.34
2018-05-23T13:54:45.453Z,995.28
2018-05-23T13:55:55.222Z,995.31
2018-05-23T13:57:04.991Z,995.33
2018-05-23T13:58:14.777Z,995.23
2018-05-23T13:59:24.824Z,995.27
2018-05-23T14:00:34.593Z,995.24
2018-05-23T14:01:44.466Z,995.29
2018-05-23T14:02:54.192Z,995.29
2018-05-23T14:04:03.964Z,995.26
2018-05-23T14:05:13.992Z,995.19
2018-05-23T14:06:23.761Z,995.25
2018-05-23T14:07:33.799Z,995.17
2018-05-23T14:08:43.569Z,995.19
2018-05-23T14:09:53.077Z,995.21
2018-05-23T14:11:02.586Z,995.34
2018-05-23T14:12:12.627Z,995.41
2018-05-23T14:13:22.680Z,995.44
2018-05-23T14:14:32.715Z,995.54
2018-05-23T14:15:42.488Z,995.49
2018-05-23T14:16:52.526Z,995.49
2018-05-23T14:18:02.293Z,995.62
2018-05-23T14:19:11.997Z,995.6
2018-05-23T14:20:21.794Z,995.73
2018-05-23T14:21:31.565Z,995.82
2018-05-23T14:22:41.600Z,995.9
2018-05-23T14:23:51.103Z,995.82
2018-05-23T14:25:00.600Z,995.71
2018-05-23T14:26:10.099Z,995.78
2018-05-23T14:27:19.866Z,995.61
2018-05-23T14:28:29.459Z,995.75
2018-05-23T14:29:39.141Z,995.64
2018-05-23T14:30:48.638Z,995.7
2018-05-23T14:31:58.412Z,995.56
2018-05-23T14:33:08.444Z,995.68
2018-05-23T14:34:18.479Z,995.63
2018-05-23T14:35:28.525Z,995.69
2018-05-23T14:36:38.292Z,995.66
2018-05-23T14:37:47.801Z,995.69
2018-05-23T14:38:57.298Z,995.63
2018-05-23T14:40:06.798Z,995.72